createdAt,value
2023-10-23T00:01:40.058Z,3.13
2023-10-23T00:04:26.458Z,3.70
2023-10-23T00:07:12.955Z,3.20
2023-10-23T00:09:59.116Z,3.22
2023-10-23T00:12:45.356Z,3.40
2023-10-23T00:15:31.340Z,3.35
2023-10-23T00:18:17.308Z,3.33
2023-10-23T00:21:03.712Z,3.17
2023-10-23T00:23:50.918Z,3.60
2023-10-23T00:26:37.222Z,3.00
2023-10-23T00:29:23.501Z,3.40
2023-10-23T00:32:09.668Z,3.33
2023-10-23T00:34:55.578Z,3.40
2023-10-23T00:37:41.591Z,3.13
2023-10-23T00:40:27.809Z,3.10
2023-10-23T00:43:25.422Z,2.90
2023-10-23T00:46:19.693Z,4.03
2023-10-23T00:49:05.815Z,3.53
2023-10-23T00:51:52.480Z,3.38
2023-10-23T00:54:41.009Z,3.20
2023-10-23T00:57:27.742Z,3.40
2023-10-23T01:00:14.859Z,3.45
2023-10-23T01:03:01.311Z,3.15
2023-10-23T01:05:47.657Z,3.38
2023-10-23T01:08:33.879Z,3.03
2023-10-23T01:11:20.156Z,3.05
2023-10-23T01:14:06.283Z,3.40
2023-10-23T01:16:52.306Z,3.03
2023-10-23T01:19:38.908Z,2.97
2023-10-23T01:22:25.202Z,3.00
2023-10-23T01:25:15.349Z,3.42
2023-10-23T01:28:01.861Z,2.88
2023-10-23T01:30:48.535Z,2.83
2023-10-23T01:33:36.810Z,2.80
2023-10-23T01:36:23.444Z,3.13
2023-10-23T01:39:09.479Z,3.10
2023-10-23T01:41:55.529Z,2.80
2023-10-23T01:44:41.486Z,2.80
2023-10-23T01:47:28.344Z,3.22
2023-10-23T01:50:14.823Z,2.90
2023-10-23T01:53:00.683Z,2.95
2023-10-23T01:55:46.814Z,2.72
2023-10-23T01:58:32.784Z,3.25
2023-10-23T02:01:23.705Z,2.75
2023-10-23T02:04:10.450Z,2.80
2023-10-23T02:06:57.269Z,2.75
2023-10-23T02:09:45.427Z,2.58
2023-10-23T02:12:33.724Z,2.80
2023-10-23T02:15:20.253Z,2.60
2023-10-23T02:18:08.901Z,2.55
2023-10-23T02:20:54.883Z,2.60
2023-10-23T02:23:53.280Z,2.83
2023-10-23T02:26:43.384Z,2.67
2023-10-23T02:29:29.642Z,2.65
2023-10-23T02:32:16.017Z,2.75
2023-10-23T02:35:02.467Z,2.38
2023-10-23T02:37:50.441Z,3.10
2023-10-23T02:40:36.602Z,2.53
2023-10-23T02:43:22.795Z,2.80
2023-10-23T02:46:09.183Z,2.25
2023-10-23T02:48:55.953Z,2.65
2023-10-23T02:51:42.358Z,2.92
2023-10-23T02:54:29.791Z,2.45
2023-10-23T02:57:16.156Z,2.80
2023-10-23T03:00:02.476Z,3.00
2023-10-23T03:02:49.997Z,2.40
2023-10-23T03:05:36.327Z,2.75
2023-10-23T03:08:22.736Z,2.80
2023-10-23T03:11:09.419Z,2.40
2023-10-23T03:13:55.985Z,2.40
2023-10-23T03:16:42.170Z,2.75
2023-10-23T03:19:28.411Z,2.78
2023-10-23T03:22:14.925Z,2.45
2023-10-23T03:25:01.019Z,2.63
2023-10-23T03:30:34.092Z,2.42
2023-10-23T03:33:20.029Z,2.70
2023-10-23T03:36:06.303Z,2.58
2023-10-23T03:38:52.418Z,3.10
2023-10-23T03:41:38.487Z,2.72
2023-10-23T03:44:24.550Z,2.50
2023-10-23T03:47:10.509Z,2.55
2023-10-23T03:49:56.605Z,2.50
2023-10-23T03:52:42.647Z,2.33
2023-10-23T03:55:28.709Z,2.40
2023-10-23T03:58:14.655Z,2.30
2023-10-23T04:01:00.932Z,2.25
2023-10-23T04:03:46.977Z,2.53
2023-10-23T04:06:33.000Z,3.15
2023-10-23T04:09:19.204Z,2.47
2023-10-23T04:12:05.397Z,2.45
2023-10-23T04:14:51.960Z,2.25
2023-10-23T04:17:38.239Z,2.63
2023-10-23T04:20:24.200Z,2.70
2023-10-23T04:23:10.297Z,4.28
2023-10-23T04:25:57.092Z,2.65
2023-10-23T04:28:43.592Z,2.30
2023-10-23T04:31:29.994Z,2.67
2023-10-23T04:34:15.964Z,2.50
2023-10-23T04:37:02.005Z,2.53
2023-10-23T04:39:47.997Z,2.30
2023-10-23T04:42:34.036Z,2.40
2023-10-23T04:45:19.989Z,2.42
2023-10-23T04:48:07.367Z,2.40
2023-10-23T04:50:53.311Z,2.80
2023-10-23T04:53:39.368Z,2.60
2023-10-23T04:56:25.348Z,2.22
2023-10-23T04:59:11.539Z,2.22
2023-10-23T05:01:57.721Z,2.53
2023-10-23T05:04:43.717Z,1.90
2023-10-23T05:07:29.615Z,1.83
2023-10-23T05:10:16.178Z,2.40
2023-10-23T05:13:04.311Z,2.50
2023-10-23T05:15:50.776Z,2.00
2023-10-23T05:18:36.866Z,2.20
2023-10-23T05:21:22.985Z,2.10
2023-10-23T05:24:09.555Z,2.17
2023-10-23T05:26:56.003Z,1.85
2023-10-23T05:29:42.106Z,2.38
2023-10-23T05:32:28.230Z,2.20
2023-10-23T05:35:16.058Z,1.88
2023-10-23T05:38:02.454Z,1.75
2023-10-23T05:40:48.488Z,2.55
2023-10-23T05:43:34.575Z,1.83
2023-10-23T05:46:22.395Z,2.05
2023-10-23T05:49:09.079Z,1.80
2023-10-23T05:51:55.231Z,2.20
2023-10-23T05:54:41.391Z,2.30
2023-10-23T05:57:27.816Z,2.10
2023-10-23T06:00:14.310Z,2.25
2023-10-23T06:03:00.671Z,2.25
2023-10-23T06:05:46.925Z,1.75
2023-10-23T06:08:33.142Z,1.65
2023-10-23T06:11:19.200Z,1.88
2023-10-23T06:14:05.603Z,2.13
2023-10-23T06:16:52.227Z,2.10
2023-10-23T06:19:38.638Z,1.90
2023-10-23T06:22:25.072Z,2.85
2023-10-23T06:25:11.120Z,1.75
2023-10-23T06:27:57.595Z,1.60
2023-10-23T06:30:43.956Z,2.10
2023-10-23T06:33:29.769Z,1.70
2023-10-23T06:36:15.940Z,1.85
2023-10-23T06:39:02.355Z,1.73
2023-10-23T06:41:51.065Z,2.08
2023-10-23T06:44:37.251Z,2.10
2023-10-23T06:47:23.739Z,1.40
2023-10-23T06:50:11.881Z,2.10
2023-10-23T06:52:57.917Z,2.13
2023-10-23T06:55:51.396Z,1.55
2023-10-23T06:58:37.775Z,1.90
2023-10-23T07:01:38.019Z,1.80
2023-10-23T07:04:28.941Z,1.90
2023-10-23T07:07:28.669Z,1.70
2023-10-23T07:10:15.997Z,1.73
2023-10-23T07:13:19.103Z,2.10
2023-10-23T07:16:08.642Z,2.20
2023-10-23T07:18:54.728Z,1.63
2023-10-23T07:21:40.999Z,1.70
2023-10-23T07:24:27.017Z,1.80
2023-10-23T07:27:16.391Z,1.70
2023-10-23T07:30:05.298Z,1.90
2023-10-23T07:32:51.688Z,2.20
2023-10-23T07:35:50.896Z,1.90
2023-10-23T07:38:42.561Z,2.28
2023-10-23T07:41:28.949Z,2.65
2023-10-23T07:44:15.179Z,1.92
2023-10-23T07:47:01.593Z,2.28
2023-10-23T07:49:47.918Z,1.80
2023-10-23T07:52:34.179Z,2.00
2023-10-23T07:55:20.264Z,1.60
2023-10-23T07:58:06.555Z,1.90
2023-10-23T08:01:01.465Z,2.10
2023-10-23T08:03:48.343Z,1.85
2023-10-23T08:06:34.802Z,1.70
2023-10-23T08:09:22.211Z,1.80
2023-10-23T08:12:08.779Z,1.67
2023-10-23T08:14:55.049Z,1.80
2023-10-23T08:17:42.801Z,1.67
2023-10-23T08:20:30.376Z,1.85
2023-10-23T08:23:16.903Z,1.65
2023-10-23T08:26:02.916Z,1.80
2023-10-23T08:29:02.056Z,1.90
2023-10-23T08:31:49.269Z,1.83
2023-10-23T08:34:35.588Z,1.85
2023-10-23T08:37:21.751Z,1.70
2023-10-23T08:40:09.083Z,8.38
2023-10-23T08:45:43.770Z,4.07
2023-10-23T08:48:30.306Z,1.80
2023-10-23T08:51:16.547Z,1.63
2023-10-23T08:54:11.481Z,2.05
2023-10-23T08:57:00.466Z,1.55
2023-10-23T08:59:46.837Z,2.38
2023-10-23T09:02:34.489Z,2.13
2023-10-23T09:05:38.787Z,1.70
2023-10-23T09:08:28.623Z,2.00
2023-10-23T09:11:14.919Z,1.90
2023-10-23T09:14:01.195Z,1.70
2023-10-23T09:16:47.443Z,1.60
2023-10-23T09:19:42.205Z,1.80
2023-10-23T09:22:30.242Z,1.45
2023-10-23T09:25:22.498Z,1.55
2023-10-23T09:28:12.345Z,1.70
2023-10-23T09:30:58.576Z,1.73
2023-10-23T09:33:46.480Z,1.73
2023-10-23T09:36:34.559Z,1.65
2023-10-23T09:39:23.539Z,1.80
2023-10-23T09:42:10.165Z,1.60
2023-10-23T09:44:56.344Z,1.33
2023-10-23T09:47:42.621Z,1.33
2023-10-23T09:53:17.048Z,1.70
2023-10-23T09:56:06.400Z,2.15
2023-10-23T09:59:00.098Z,6.93
2023-10-23T10:01:50.782Z,1.50
2023-10-23T10:05:09.807Z,1.30
2023-10-23T10:08:09.376Z,1.70
2023-10-23T10:10:56.727Z,1.48
2023-10-23T10:13:44.031Z,2.22
2023-10-23T10:16:31.019Z,1.30
2023-10-23T10:19:18.199Z,1.40
2023-10-23T10:22:34.575Z,1.38
2023-10-23T10:25:21.600Z,2.20
2023-10-23T10:28:09.377Z,1.35
2023-10-23T10:30:56.092Z,1.38
2023-10-23T10:34:26.470Z,1.40
2023-10-23T10:36:49.622Z,1.30
2023-10-23T10:39:59.270Z,1.42
2023-10-23T10:42:45.506Z,1.30
2023-10-23T10:48:18.462Z,1.45
2023-10-23T10:51:05.306Z,1.10
2023-10-23T10:54:03.480Z,1.50
2023-10-23T10:56:50.564Z,1.50
2023-10-23T10:59:36.874Z,1.42
2023-10-23T11:02:24.419Z,1.10
2023-10-23T11:05:12.272Z,1.40
2023-10-23T11:07:58.518Z,1.10
2023-10-23T11:10:44.972Z,1.20
2023-10-23T11:13:31.993Z,1.40
2023-10-23T11:19:05.314Z,1.27
2023-10-23T11:22:08.077Z,1.02
2023-10-23T11:24:54.900Z,1.30
2023-10-23T11:30:28.921Z,1.33
2023-10-23T11:33:19.007Z,1.10
2023-10-23T11:36:06.979Z,1.10
2023-10-23T11:38:53.001Z,1.10
2023-10-23T11:41:39.115Z,1.20
2023-10-23T11:44:28.644Z,1.30
2023-10-23T11:47:14.887Z,1.10
2023-10-23T11:50:01.500Z,1.30
2023-10-23T11:52:49.688Z,1.10
2023-10-23T11:55:37.647Z,1.30
2023-10-23T11:58:30.752Z,0.90
2023-10-23T12:01:16.855Z,1.02
2023-10-23T12:04:05.566Z,1.20
2023-10-23T12:06:52.120Z,1.10
2023-10-23T12:09:38.477Z,1.33
2023-10-23T12:12:24.613Z,1.27
2023-10-23T12:15:12.140Z,1.30
2023-10-23T12:18:07.654Z,1.30
2023-10-23T12:20:54.346Z,1.33
2023-10-23T12:23:42.296Z,1.30
2023-10-23T12:26:28.676Z,1.30
2023-10-23T12:29:16.320Z,1.20
2023-10-23T12:32:02.813Z,1.17
2023-10-23T12:34:52.125Z,1.40
2023-10-23T12:37:40.249Z,1.15
2023-10-23T12:40:30.731Z,1.20
2023-10-23T12:43:19.072Z,1.70
2023-10-23T12:46:05.144Z,1.20
2023-10-23T12:48:51.264Z,1.30
2023-10-23T12:51:37.534Z,1.42
2023-10-23T12:57:09.964Z,1.10
2023-10-23T12:59:56.120Z,1.52
2023-10-23T13:02:43.564Z,1.40
2023-10-23T13:05:30.601Z,1.60
2023-10-23T13:08:16.795Z,1.55
2023-10-23T13:11:02.965Z,1.67
2023-10-23T13:13:49.283Z,1.40
2023-10-23T13:16:35.976Z,1.60
2023-10-23T13:19:22.677Z,1.40
2023-10-23T13:22:11.569Z,1.50
2023-10-23T13:24:58.112Z,1.70
2023-10-23T13:27:44.123Z,1.70
2023-10-23T13:30:30.290Z,1.60
2023-10-23T13:33:16.239Z,1.60
2023-10-23T13:36:02.387Z,1.60
2023-10-23T13:38:49.737Z,1.60
2023-10-23T13:41:35.987Z,1.58
2023-10-23T13:44:22.235Z,1.63
2023-10-23T13:49:57.036Z,1.70
2023-10-23T13:52:43.291Z,1.58
2023-10-23T13:55:29.472Z,1.52
2023-10-23T13:58:15.642Z,2.28
2023-10-23T14:03:48.265Z,1.92
2023-10-23T14:06:34.633Z,1.90
2023-10-23T14:09:40.326Z,1.90
2023-10-23T14:12:27.346Z,1.70
2023-10-23T14:15:14.514Z,2.10
2023-10-23T14:18:00.632Z,2.03
2023-10-23T14:20:47.144Z,1.98
2023-10-23T14:23:33.214Z,2.10
2023-10-23T14:26:19.723Z,1.95
2023-10-23T14:29:08.700Z,2.22
2023-10-23T14:31:55.145Z,2.47
2023-10-23T14:34:41.468Z,2.08
2023-10-23T14:37:27.929Z,2.00
2023-10-23T14:40:15.213Z,1.92
2023-10-23T14:43:01.766Z,2.20
2023-10-23T14:45:52.640Z,2.28
2023-10-23T14:48:40.218Z,2.25
2023-10-23T14:51:26.525Z,1.98
2023-10-23T14:54:12.601Z,2.03
2023-10-23T14:56:58.962Z,1.98
2023-10-23T14:59:45.256Z,1.80
2023-10-23T15:02:31.509Z,2.10
2023-10-23T15:05:18.059Z,2.00
2023-10-23T15:08:04.545Z,1.90
2023-10-23T15:10:50.649Z,1.92
2023-10-23T15:13:36.831Z,1.90
2023-10-23T15:16:23.161Z,1.90
2023-10-23T15:19:09.194Z,1.90
2023-10-23T15:21:55.813Z,2.00
2023-10-23T15:24:42.525Z,1.80
2023-10-23T15:27:29.206Z,1.98
2023-10-23T15:30:16.618Z,1.88
2023-10-23T15:33:05.276Z,1.63
2023-10-23T15:35:58.186Z,2.55
2023-10-23T15:38:44.833Z,2.08
2023-10-23T15:41:30.893Z,1.83
2023-10-23T15:44:17.999Z,2.00
2023-10-23T15:47:04.367Z,2.00
2023-10-23T15:49:51.031Z,2.10
2023-10-23T15:52:36.989Z,2.85
2023-10-23T15:55:24.347Z,2.45
2023-10-23T15:58:11.533Z,2.30
2023-10-23T16:00:58.397Z,2.20
2023-10-23T16:03:45.270Z,2.03
2023-10-23T16:06:33.127Z,1.90
2023-10-23T16:09:26.384Z,2.22
2023-10-23T16:12:15.249Z,2.20
2023-10-23T16:15:01.957Z,2.33
2023-10-23T16:17:49.341Z,2.20
2023-10-23T16:20:38.085Z,2.28
2023-10-23T16:23:25.402Z,2.10
2023-10-23T16:26:12.207Z,2.13
2023-10-23T16:28:58.710Z,2.05
2023-10-23T16:31:45.299Z,2.28
2023-10-23T16:34:32.883Z,2.20
2023-10-23T16:37:19.164Z,2.28
2023-10-23T16:40:05.982Z,2.50
2023-10-23T16:42:52.460Z,2.05
2023-10-23T16:45:38.772Z,2.40
2023-10-23T16:48:25.189Z,2.35
2023-10-23T16:51:11.523Z,2.47
2023-10-23T16:53:57.861Z,2.35
2023-10-23T16:56:44.407Z,2.20
2023-10-23T16:59:30.666Z,2.22
2023-10-23T17:02:17.249Z,2.20
2023-10-23T17:05:03.742Z,2.70
2023-10-23T17:07:50.085Z,2.33
2023-10-23T17:10:36.752Z,2.20
2023-10-23T17:13:23.455Z,2.65
2023-10-23T17:16:13.439Z,2.40
2023-10-23T17:19:00.206Z,2.58
2023-10-23T17:21:47.239Z,2.20
2023-10-23T17:24:34.902Z,2.20
2023-10-23T17:27:21.025Z,2.30
2023-10-23T17:30:08.052Z,2.65
2023-10-23T17:32:54.560Z,2.22
2023-10-23T17:38:27.607Z,2.25
2023-10-23T17:41:16.193Z,2.22
2023-10-23T17:44:02.672Z,2.38
2023-10-23T17:46:48.781Z,2.35
2023-10-23T17:49:35.142Z,2.95
2023-10-23T17:52:21.606Z,2.38
2023-10-23T17:55:08.576Z,1.98
2023-10-23T17:57:55.310Z,2.40
2023-10-23T18:00:41.579Z,2.30
2023-10-23T18:03:28.205Z,2.30
2023-10-23T18:06:14.552Z,2.10
2023-10-23T18:09:03.020Z,2.20
2023-10-23T18:11:49.386Z,2.63
2023-10-23T18:14:35.657Z,2.10
2023-10-23T18:17:22.171Z,2.20
2023-10-23T18:20:09.004Z,1.90
2023-10-23T18:25:44.165Z,2.20
2023-10-23T18:28:30.689Z,2.60
2023-10-23T18:31:17.471Z,2.40
2023-10-23T18:34:04.970Z,2.25
2023-10-23T18:36:51.313Z,2.45
2023-10-23T18:39:38.007Z,2.20
2023-10-23T18:42:25.623Z,2.47
2023-10-23T18:45:12.267Z,2.50
2023-10-23T18:47:58.769Z,2.40
2023-10-23T18:53:31.747Z,2.22
2023-10-23T18:56:17.852Z,2.50
2023-10-23T18:59:04.484Z,2.50
2023-10-23T19:01:50.555Z,2.30
2023-10-23T19:04:36.659Z,2.13
2023-10-23T19:07:23.211Z,2.60
2023-10-23T19:12:57.064Z,2.38
2023-10-23T19:15:43.020Z,2.35
2023-10-23T19:18:31.252Z,2.17
2023-10-23T19:21:18.057Z,2.40
2023-10-23T19:24:05.121Z,2.10
2023-10-23T19:26:50.993Z,2.47
2023-10-23T19:29:37.173Z,2.50
2023-10-23T19:32:23.420Z,2.13
2023-10-23T19:35:10.798Z,2.47
2023-10-23T19:37:57.197Z,2.50
2023-10-23T19:40:50.496Z,2.35
2023-10-23T19:43:43.236Z,2.53
2023-10-23T19:49:16.190Z,2.00
2023-10-23T19:52:03.169Z,2.50
2023-10-23T19:54:50.954Z,2.63
2023-10-23T19:57:37.705Z,2.35
2023-10-23T20:00:24.076Z,2.63
2023-10-23T20:03:11.154Z,2.95
2023-10-23T20:05:57.099Z,2.60
2023-10-23T20:08:43.223Z,2.40
2023-10-23T20:11:29.658Z,2.35
2023-10-23T20:14:17.379Z,2.35
2023-10-23T20:17:04.051Z,2.47
2023-10-23T20:19:50.614Z,2.60
2023-10-23T20:22:36.775Z,2.72
2023-10-23T20:25:23.037Z,2.78
2023-10-23T20:28:10.337Z,2.40
2023-10-23T20:30:56.604Z,2.63
2023-10-23T20:33:43.630Z,2.65
2023-10-23T20:36:30.021Z,2.78
2023-10-23T20:39:16.133Z,2.40
2023-10-23T20:42:02.278Z,2.30
2023-10-23T20:44:48.286Z,2.55
2023-10-23T20:47:35.649Z,2.92
2023-10-23T20:50:24.272Z,2.40
2023-10-23T20:53:10.593Z,2.45
2023-10-23T20:55:58.819Z,2.53
2023-10-23T20:58:44.904Z,2.50
2023-10-23T21:01:31.127Z,2.58
2023-10-23T21:04:17.022Z,2.80
2023-10-23T21:07:03.713Z,2.65
2023-10-23T21:09:51.634Z,2.63
2023-10-23T21:12:38.665Z,2.53
2023-10-23T21:15:24.769Z,2.60
2023-10-23T21:18:10.886Z,2.53
2023-10-23T21:20:57.170Z,2.50
2023-10-23T21:23:43.455Z,2.60
2023-10-23T21:26:31.195Z,2.63
2023-10-23T21:29:21.975Z,2.58
2023-10-23T21:32:08.675Z,2.40
2023-10-23T21:37:41.224Z,2.45
2023-10-23T21:40:27.362Z,2.88
2023-10-23T21:43:14.029Z,3.17
2023-10-23T21:48:56.119Z,2.70
2023-10-23T21:51:42.544Z,2.28
2023-10-23T21:54:28.774Z,2.60
2023-10-23T21:57:22.522Z,2.80
2023-10-23T22:00:18.964Z,2.40
2023-10-23T22:03:05.533Z,2.63
2023-10-23T22:05:52.092Z,2.70
2023-10-23T22:08:44.594Z,2.55
2023-10-23T22:11:31.156Z,3.00
2023-10-23T22:14:17.805Z,2.30
2023-10-23T22:17:04.432Z,2.55
2023-10-23T22:19:50.594Z,2.90
2023-10-23T22:22:36.674Z,2.80
2023-10-23T22:25:22.736Z,2.50
2023-10-23T22:28:08.955Z,2.70
2023-10-23T22:30:55.282Z,2.92
2023-10-23T22:33:41.814Z,2.63
2023-10-23T22:36:27.796Z,2.60
2023-10-23T22:39:13.920Z,2.58
2023-10-23T22:42:00.955Z,2.85
2023-10-23T22:44:47.013Z,2.75
2023-10-23T22:47:33.161Z,2.90
2023-10-23T22:50:20.058Z,2.95
2023-10-23T22:53:06.276Z,2.90
2023-10-23T22:55:55.118Z,3.28
2023-10-23T22:58:42.324Z,2.50
2023-10-23T23:01:28.994Z,2.38
2023-10-23T23:04:15.597Z,2.70
2023-10-23T23:07:03.950Z,2.63
2023-10-23T23:09:50.336Z,2.90
2023-10-23T23:12:37.580Z,2.70
2023-10-23T23:15:24.040Z,2.83
2023-10-23T23:18:20.061Z,2.55
2023-10-23T23:21:09.448Z,2.45
2023-10-23T23:23:55.546Z,2.58
2023-10-23T23:26:41.565Z,2.80
2023-10-23T23:29:27.877Z,2.53
2023-10-23T23:32:14.014Z,3.17
2023-10-23T23:35:00.298Z,2.63
2023-10-23T23:37:46.476Z,2.70
2023-10-23T23:40:32.485Z,2.72
2023-10-23T23:43:18.554Z,2.78
2023-10-23T23:46:04.789Z,2.53
2023-10-23T23:48:51.307Z,2.47
2023-10-23T23:51:37.633Z,2.88
2023-10-23T23:54:23.938Z,2.67
2023-10-23T23:57:12.120Z,2.67
2023-10-23T23:59:58.612Z,2.72
